createdAt,value
2023-02-23T00:03:09.284Z,10.80
2023-02-23T00:06:40.811Z,11.70
2023-02-23T00:10:12.844Z,11.20
2023-02-23T00:13:41.219Z,11.10
2023-02-23T00:17:15.283Z,11.10
2023-02-23T00:20:49.063Z,11.90
2023-02-23T00:24:19.474Z,11.10
2023-02-23T00:27:49.769Z,11.50
2023-02-23T00:31:17.545Z,11.60
2023-02-23T00:34:45.222Z,11.00
2023-02-23T00:38:14.445Z,11.70
2023-02-23T00:41:44.266Z,11.40
2023-02-23T00:45:13.526Z,11.20
2023-02-23T00:48:42.332Z,11.00
2023-02-23T00:52:11.466Z,11.90
2023-02-23T00:55:42.198Z,12.40
2023-02-23T00:59:10.031Z,11.80
2023-02-23T01:02:37.169Z,11.30
2023-02-23T01:06:06.729Z,11.20
2023-02-23T01:09:35.238Z,11.20
2023-02-23T01:13:06.273Z,11.10
2023-02-23T01:16:39.281Z,10.70
2023-02-23T01:20:15.981Z,11.60
2023-02-23T01:23:43.188Z,10.20
2023-02-23T01:27:10.770Z,11.40
2023-02-23T01:30:38.027Z,11.90
2023-02-23T01:34:06.219Z,12.30
2023-02-23T01:37:35.655Z,11.20
2023-02-23T01:41:04.392Z,12.30
2023-02-23T01:45:15.033Z,11.80
2023-02-23T01:48:43.884Z,12.00
2023-02-23T01:52:14.776Z,12.50
2023-02-23T01:55:43.288Z,11.90
2023-02-23T01:59:13.078Z,11.80
2023-02-23T02:02:42.335Z,11.80
2023-02-23T02:06:14.798Z,11.10
2023-02-23T02:10:03.563Z,11.50
2023-02-23T02:13:33.726Z,11.80
2023-02-23T02:17:13.358Z,12.50
2023-02-23T02:21:16.660Z,12.10
2023-02-23T02:25:18.919Z,11.60
2023-02-23T02:29:29.157Z,13.10
2023-02-23T02:33:27.586Z,10.80
2023-02-23T02:37:39.530Z,11.90
2023-02-23T02:41:12.315Z,10.60
2023-02-23T02:44:53.353Z,11.30
2023-02-23T02:48:34.991Z,10.70
2023-02-23T02:52:13.997Z,11.50
2023-02-23T02:55:44.182Z,11.70
2023-02-23T02:59:36.292Z,11.50
2023-02-23T03:03:21.431Z,10.60
2023-02-23T03:07:12.258Z,12.50
2023-02-23T03:11:05.994Z,12.10
2023-02-23T03:18:57.084Z,10.40
2023-02-23T03:22:48.930Z,10.40
2023-02-23T03:26:40.677Z,11.40
2023-02-23T03:30:34.756Z,12.00
2023-02-23T03:34:28.357Z,12.10
2023-02-23T03:38:19.839Z,11.20
2023-02-23T03:42:05.626Z,11.70
2023-02-23T03:45:52.411Z,11.30
2023-02-23T03:49:40.354Z,11.40
2023-02-23T03:53:27.024Z,11.60
2023-02-23T03:57:14.301Z,12.60
2023-02-23T04:01:04.332Z,11.80
2023-02-23T04:04:49.686Z,11.70
2023-02-23T04:08:37.898Z,11.70
2023-02-23T04:12:28.582Z,12.20
2023-02-23T04:15:57.098Z,11.50
2023-02-23T04:19:23.603Z,10.70
2023-02-23T04:22:50.102Z,11.00
2023-02-23T04:26:16.901Z,11.00
2023-02-23T04:29:44.381Z,10.80
2023-02-23T04:33:11.176Z,12.20
2023-02-23T04:36:37.656Z,10.30
2023-02-23T04:40:04.438Z,10.80
2023-02-23T04:43:31.134Z,11.20
2023-02-23T04:46:57.403Z,11.30
2023-02-23T04:50:24.293Z,10.80
2023-02-23T04:53:50.983Z,11.30
2023-02-23T04:57:17.648Z,11.20
2023-02-23T05:00:44.414Z,11.20
2023-02-23T05:04:11.687Z,11.40
2023-02-23T05:07:39.009Z,10.90
2023-02-23T05:11:07.375Z,11.10
2023-02-23T05:14:34.209Z,10.70
2023-02-23T05:18:00.724Z,10.60
2023-02-23T05:21:27.647Z,11.30
2023-02-23T05:24:57.312Z,10.90
2023-02-23T05:28:24.066Z,11.40
2023-02-23T05:31:51.011Z,10.80
2023-02-23T05:35:18.584Z,11.60
2023-02-23T05:38:45.921Z,11.60
2023-02-23T05:42:17.313Z,13.00
2023-02-23T05:45:45.382Z,12.00
2023-02-23T05:49:13.993Z,14.00
2023-02-23T05:52:42.411Z,14.30
2023-02-23T05:56:13.962Z,16.50
2023-02-23T05:59:40.620Z,15.30
2023-02-23T06:03:07.350Z,17.00
2023-02-23T06:06:34.400Z,17.00
2023-02-23T06:10:01.290Z,16.00
2023-02-23T06:13:29.236Z,16.00
2023-02-23T06:16:56.751Z,15.10
2023-02-23T06:20:23.916Z,15.40
2023-02-23T06:23:50.924Z,16.60
2023-02-23T06:27:17.970Z,16.40
2023-02-23T06:30:45.955Z,14.50
2023-02-23T06:34:12.883Z,14.30
2023-02-23T06:37:39.920Z,14.10
2023-02-23T06:41:12.343Z,13.90
2023-02-23T06:44:39.901Z,14.50
2023-02-23T06:48:07.917Z,14.30
2023-02-23T06:51:35.656Z,14.20
2023-02-23T06:55:02.614Z,13.20
2023-02-23T06:58:29.911Z,12.80
2023-02-23T07:01:56.842Z,13.40
2023-02-23T07:05:23.492Z,18.30
2023-02-23T07:08:50.534Z,13.60
2023-02-23T07:12:17.348Z,23.70
2023-02-23T07:15:44.651Z,13.60
2023-02-23T07:19:11.561Z,14.00
2023-02-23T07:22:40.002Z,27.20
2023-02-23T07:26:07.387Z,20.00
2023-02-23T07:29:34.233Z,18.00
2023-02-23T07:33:03.125Z,15.80
2023-02-23T07:36:29.788Z,23.60
2023-02-23T07:39:56.602Z,16.80
2023-02-23T07:43:24.459Z,16.80
2023-02-23T07:46:53.246Z,22.70
2023-02-23T07:50:21.005Z,16.00
2023-02-23T07:53:48.086Z,14.60
2023-02-23T07:57:14.972Z,14.80
2023-02-23T08:00:41.797Z,14.00
2023-02-23T08:04:09.183Z,12.80
2023-02-23T08:07:36.654Z,17.80
2023-02-23T08:11:05.314Z,15.40
2023-02-23T08:14:32.218Z,14.80
2023-02-23T08:17:59.312Z,20.70
2023-02-23T08:21:25.749Z,14.20
2023-02-23T08:24:52.093Z,13.80
2023-02-23T08:28:20.579Z,13.60
2023-02-23T08:31:48.430Z,14.10
2023-02-23T08:35:16.084Z,13.30
2023-02-23T08:38:42.509Z,13.40
2023-02-23T08:42:10.533Z,15.00
2023-02-23T08:45:38.930Z,14.50
2023-02-23T08:49:09.036Z,12.60
2023-02-23T08:52:36.558Z,13.10
2023-02-23T08:56:18.102Z,14.30
2023-02-23T08:59:49.307Z,14.20
2023-02-23T09:03:20.408Z,13.90
2023-02-23T09:06:50.953Z,16.30
2023-02-23T09:10:25.913Z,15.10
2023-02-23T09:14:01.019Z,17.40
2023-02-23T09:17:30.349Z,16.70
2023-02-23T09:21:00.403Z,15.90
2023-02-23T09:24:28.688Z,16.60
2023-02-23T09:27:59.804Z,16.20
2023-02-23T09:31:27.374Z,16.30
2023-02-23T09:34:54.260Z,16.90
2023-02-23T09:38:20.767Z,16.40
2023-02-23T09:42:18.129Z,19.30
2023-02-23T09:45:49.228Z,15.70
2023-02-23T09:49:20.181Z,16.60
2023-02-23T09:52:50.656Z,15.50
2023-02-23T09:56:22.128Z,20.10
2023-02-23T09:59:48.810Z,18.80
2023-02-23T10:03:26.047Z,18.90
2023-02-23T10:07:00.632Z,18.80
2023-02-23T10:10:37.799Z,21.70
2023-02-23T10:14:21.664Z,19.10
2023-02-23T10:21:26.586Z,16.50
2023-02-23T10:24:57.783Z,16.00
2023-02-23T10:28:25.368Z,16.60
2023-02-23T10:31:58.314Z,18.30
2023-02-23T10:35:26.354Z,22.10
2023-02-23T10:38:53.119Z,18.50
2023-02-23T10:42:24.479Z,25.60
2023-02-23T10:45:52.859Z,25.10
2023-02-23T10:49:23.249Z,19.10
2023-02-23T10:52:53.038Z,17.10
2023-02-23T10:56:21.843Z,17.30
2023-02-23T11:00:03.425Z,23.40
2023-02-23T11:03:37.400Z,17.50
2023-02-23T11:07:18.008Z,18.10
2023-02-23T11:10:56.297Z,18.00
2023-02-23T11:14:28.925Z,17.80
2023-02-23T11:18:00.898Z,18.60
2023-02-23T11:21:33.712Z,17.10
2023-02-23T11:25:01.850Z,16.50
2023-02-23T11:28:33.607Z,18.80
2023-02-23T11:32:09.865Z,18.50
2023-02-23T11:35:37.754Z,17.20
2023-02-23T11:39:23.722Z,16.30
2023-02-23T11:42:57.325Z,23.20
2023-02-23T11:46:25.667Z,21.10
2023-02-23T11:49:53.440Z,21.30
2023-02-23T11:53:30.030Z,20.70
2023-02-23T11:56:58.279Z,19.40
2023-02-23T12:00:30.425Z,20.00
2023-02-23T12:03:59.157Z,24.10
2023-02-23T12:07:39.140Z,18.30
2023-02-23T12:11:12.444Z,18.10
2023-02-23T12:14:49.991Z,22.70
2023-02-23T12:18:27.223Z,17.20
2023-02-23T12:22:03.701Z,18.00
2023-02-23T12:25:36.489Z,17.00
2023-02-23T12:29:07.538Z,21.30
2023-02-23T12:32:45.341Z,18.90
2023-02-23T12:36:26.709Z,16.90
2023-02-23T12:39:58.841Z,19.00
2023-02-23T12:43:31.882Z,19.90
2023-02-23T12:47:04.403Z,18.20
2023-02-23T12:50:34.753Z,17.60
2023-02-23T12:54:03.154Z,18.50
2023-02-23T12:57:39.103Z,17.90
2023-02-23T13:01:13.164Z,19.20
2023-02-23T13:05:06.054Z,19.00
2023-02-23T13:08:50.906Z,19.80
2023-02-23T13:12:33.414Z,18.60
2023-02-23T13:16:05.762Z,19.10
2023-02-23T13:19:39.627Z,19.70
2023-02-23T13:23:16.466Z,20.60
2023-02-23T13:26:50.465Z,19.00
2023-02-23T13:30:18.153Z,27.70
2023-02-23T13:33:44.824Z,21.90
2023-02-23T13:37:13.876Z,24.90
2023-02-23T13:40:46.817Z,22.10
2023-02-23T13:44:23.495Z,23.40
2023-02-23T13:47:55.762Z,21.60
2023-02-23T13:51:31.394Z,23.90
2023-02-23T13:55:04.773Z,23.00
2023-02-23T13:58:34.271Z,22.30
2023-02-23T14:02:17.898Z,23.00
2023-02-23T14:05:48.308Z,23.00
2023-02-23T14:09:24.030Z,21.50
2023-02-23T14:13:08.652Z,24.40
2023-02-23T14:16:36.448Z,22.80
2023-02-23T14:34:23.275Z,25.50
2023-02-23T14:38:01.171Z,25.40
2023-02-23T14:41:31.540Z,26.80
2023-02-23T14:45:04.189Z,28.90
2023-02-23T14:48:31.561Z,24.10
2023-02-23T14:52:06.096Z,25.50
2023-02-23T14:55:35.542Z,25.70
2023-02-23T14:59:02.466Z,23.50
2023-02-23T15:02:33.033Z,26.10
2023-02-23T15:06:02.697Z,39.10
2023-02-23T15:09:36.625Z,24.80
2023-02-23T15:13:11.119Z,26.60
2023-02-23T15:16:38.943Z,26.20
2023-02-23T15:20:16.237Z,25.20
2023-02-23T15:23:46.056Z,31.30
2023-02-23T15:27:23.053Z,28.10
2023-02-23T15:30:53.433Z,38.40
2023-02-23T15:34:22.250Z,25.70
2023-02-23T15:37:59.495Z,23.20
2023-02-23T15:41:42.641Z,23.10
2023-02-23T15:45:21.220Z,23.10
2023-02-23T15:48:53.872Z,22.30
2023-02-23T15:52:26.121Z,26.90
2023-02-23T15:55:56.295Z,26.80
2023-02-23T15:59:29.255Z,25.90
2023-02-23T16:03:00.085Z,26.80
2023-02-23T16:06:36.956Z,27.20
2023-02-23T16:10:21.959Z,32.40
2023-02-23T16:13:53.251Z,27.90
2023-02-23T16:17:30.369Z,28.00
2023-02-23T16:21:02.271Z,30.30
2023-02-23T16:28:02.188Z,30.70
2023-02-23T16:31:44.321Z,52.20
2023-02-23T16:35:25.940Z,50.10
2023-02-23T16:39:01.552Z,26.80
2023-02-23T16:42:32.839Z,36.00
2023-02-23T16:45:59.602Z,30.20
2023-02-23T16:49:26.075Z,30.60
2023-02-23T16:52:56.696Z,33.20
2023-02-23T16:56:25.880Z,32.50
2023-02-23T16:59:54.838Z,50.00
2023-02-23T17:03:25.946Z,35.10
2023-02-23T17:06:58.016Z,31.10
2023-02-23T17:10:27.249Z,35.00
2023-02-23T17:13:54.849Z,43.50
2023-02-23T17:17:23.059Z,41.60
2023-02-23T17:20:50.003Z,51.00
2023-02-23T17:24:18.296Z,36.10
2023-02-23T17:27:44.999Z,31.90
2023-02-23T17:31:14.597Z,31.00
2023-02-23T17:34:41.542Z,34.90
2023-02-23T17:38:09.540Z,40.80
2023-02-23T17:41:35.925Z,39.90
2023-02-23T17:45:04.264Z,35.50
2023-02-23T17:48:34.765Z,35.80
2023-02-23T17:52:03.316Z,35.20
2023-02-23T17:55:30.477Z,33.00
2023-02-23T17:58:58.583Z,32.90
2023-02-23T18:02:27.183Z,37.80
2023-02-23T18:05:55.050Z,45.10
2023-02-23T18:09:21.686Z,56.60
2023-02-23T18:12:48.338Z,57.00
2023-02-23T18:16:23.040Z,44.00
2023-02-23T18:19:53.479Z,47.30
2023-02-23T18:23:23.519Z,49.00
2023-02-23T18:27:02.325Z,54.80
2023-02-23T18:30:31.786Z,61.00
2023-02-23T18:34:01.770Z,54.10
2023-02-23T18:37:33.839Z,57.80
2023-02-23T18:41:07.641Z,57.20
2023-02-23T18:44:41.654Z,55.10
2023-02-23T18:48:13.850Z,52.50
2023-02-23T18:51:45.556Z,46.70
2023-02-23T18:55:18.095Z,44.80
2023-02-23T18:58:49.217Z,47.40
2023-02-23T19:02:19.396Z,48.10
2023-02-23T19:05:54.421Z,47.80
2023-02-23T19:09:27.467Z,49.40
2023-02-23T19:12:58.787Z,49.70
2023-02-23T19:16:30.274Z,51.00
2023-02-23T19:20:00.927Z,71.30
2023-02-23T19:23:28.334Z,78.10
2023-02-23T19:26:56.768Z,73.70
2023-02-23T19:30:24.176Z,69.90
2023-02-23T19:33:51.915Z,60.40
2023-02-23T19:37:19.018Z,52.70
2023-02-23T19:40:47.067Z,53.90
2023-02-23T19:44:13.759Z,56.50
2023-02-23T19:47:41.175Z,52.30
2023-02-23T19:51:11.553Z,48.20
2023-02-23T19:54:39.350Z,45.80
2023-02-23T19:58:07.763Z,41.40
2023-02-23T20:01:35.289Z,39.80
2023-02-23T20:05:03.783Z,42.80
2023-02-23T20:08:30.697Z,41.70
2023-02-23T20:11:58.338Z,42.40
2023-02-23T20:15:25.518Z,42.90
2023-02-23T20:18:54.937Z,43.50
2023-02-23T20:22:22.222Z,47.40
2023-02-23T20:25:49.116Z,48.70
2023-02-23T20:29:19.379Z,47.50
2023-02-23T20:32:48.154Z,47.10
2023-02-23T20:36:16.113Z,48.90
2023-02-23T20:39:44.590Z,45.00
2023-02-23T20:43:12.436Z,42.50
2023-02-23T20:46:44.163Z,41.30
2023-02-23T20:50:13.991Z,42.30
2023-02-23T20:53:42.094Z,40.50
2023-02-23T20:57:09.874Z,39.80
2023-02-23T21:00:40.171Z,39.90
2023-02-23T21:04:07.847Z,39.90
2023-02-23T21:07:36.098Z,39.90
2023-02-23T21:11:08.117Z,38.40
2023-02-23T21:14:36.342Z,40.60
2023-02-23T21:18:03.849Z,40.10
2023-02-23T21:21:31.524Z,41.00
2023-02-23T21:25:02.349Z,38.80
2023-02-23T21:28:31.267Z,42.80
2023-02-23T21:31:58.712Z,44.50
2023-02-23T21:35:26.116Z,45.90
2023-02-23T21:38:54.603Z,46.80
2023-02-23T21:42:25.210Z,49.30
2023-02-23T21:45:51.980Z,50.80
2023-02-23T21:49:20.322Z,49.20
2023-02-23T21:52:49.123Z,49.20
2023-02-23T21:56:18.782Z,48.60
2023-02-23T21:59:46.976Z,53.90
2023-02-23T22:03:16.443Z,51.00
2023-02-23T22:06:46.092Z,54.10
2023-02-23T22:10:13.581Z,54.60
2023-02-23T22:13:43.713Z,54.70
2023-02-23T22:17:11.602Z,51.70
2023-02-23T22:20:39.589Z,50.10
2023-02-23T22:24:08.562Z,51.60
2023-02-23T22:27:36.077Z,50.40
2023-02-23T22:31:08.534Z,50.20
2023-02-23T22:34:35.521Z,51.30
2023-02-23T22:38:13.056Z,52.00
2023-02-23T22:41:42.603Z,52.10
2023-02-23T22:45:12.686Z,48.90
2023-02-23T22:48:44.074Z,50.40
2023-02-23T22:52:13.135Z,56.70
2023-02-23T22:55:42.708Z,52.70
2023-02-23T22:59:19.583Z,52.90
2023-02-23T23:02:47.469Z,56.30
2023-02-23T23:06:18.011Z,56.60
2023-02-23T23:09:45.223Z,55.10
2023-02-23T23:13:12.592Z,55.70
2023-02-23T23:16:48.395Z,52.80
2023-02-23T23:20:23.416Z,53.10
2023-02-23T23:23:51.851Z,50.80
2023-02-23T23:27:20.398Z,50.20
2023-02-23T23:30:52.498Z,51.30
2023-02-23T23:34:21.930Z,48.70
2023-02-23T23:37:49.849Z,47.70
2023-02-23T23:41:17.398Z,46.30
2023-02-23T23:44:45.763Z,47.50
2023-02-23T23:48:14.357Z,47.90
2023-02-23T23:51:45.044Z,46.10
2023-02-23T23:55:15.109Z,45.50
2023-02-23T23:58:42.606Z,47.30
